Time,TemperatureF,DewpointF,PressureIn,WindDirection,WindDirectionDegrees,WindSpeedMPH,WindSpeedGustMPH,Humidity,HourlyPrecipIn,Conditions,Clouds,dailyrainin,SoftwareType,DateUTC
2013-01-21 08:57:00,1.4,-3.6,29.73,NNW,333,1.0,2.0,79,0.00,,,0.00,Wunderground v.1.15,2013-01-21 13:57:00,
2013-01-21 09:08:00,0.7,-4.3,29.74,NNW,332,2.0,2.0,79,0.00,,,0.00,Wunderground v.1.15,2013-01-21 14:08:00,
2013-01-21 09:17:00,1.3,-3.2,29.73,SSW,193,2.0,2.0,81,0.00,,,0.00,Wunderground v.1.15,2013-01-21 14:17:00,
2013-01-21 09:28:00,2.3,-2.5,29.73,SSW,193,2.0,2.0,80,0.00,,,0.00,Wunderground v.1.15,2013-01-21 14:28:00,
2013-01-21 09:37:00,3.2,-1.8,29.73,South,169,1.0,1.0,79,0.00,,,0.00,Wunderground v.1.15,2013-01-21 14:37:00,
2013-01-21 09:48:00,4.0,-1.6,29.72,South,178,2.0,2.0,77,0.00,,,0.00,Wunderground v.1.15,2013-01-21 14:48:00,
2013-01-21 09:58:00,4.3,-1.3,29.72,South,180,2.0,2.0,77,0.00,,,0.00,Wunderground v.1.15,2013-01-21 14:58:00,
2013-01-21 10:08:00,4.7,-0.9,29.72,South,182,2.0,3.0,77,0.00,,,0.00,Wunderground v.1.15,2013-01-21 15:08:00,
2013-01-21 10:18:00,5.9,0.5,29.72,South,182,1.0,2.0,78,0.00,,,0.00,Wunderground v.1.15,2013-01-21 15:18:00,
2013-01-21 10:27:00,7.3,1.0,29.73,South,182,2.0,3.0,75,0.00,,,0.00,Wunderground v.1.15,2013-01-21 15:27:00,
2013-01-21 10:38:00,8.2,1.3,29.72,South,183,3.0,3.0,73,0.00,,,0.00,Wunderground v.1.15,2013-01-21 15:38:00,
2013-01-21 10:48:00,9.2,2.0,29.72,South,178,3.0,4.0,72,0.00,,,0.00,Wunderground v.1.15,2013-01-21 15:48:00,
2013-01-21 10:57:00,10.0,2.2,29.71,SE,138,3.0,3.0,70,0.00,,,0.00,Wunderground v.1.15,2013-01-21 15:57:00,
2013-01-21 11:08:00,10.0,1.9,29.70,South,173,3.0,5.0,69,0.00,,,0.00,Wunderground v.1.15,2013-01-21 16:08:00,
2013-01-21 11:18:00,10.5,2.3,29.69,ESE,111,3.0,3.0,69,0.00,,,0.00,Wunderground v.1.15,2013-01-21 16:18:00,
2013-01-21 11:28:00,11.4,2.6,29.68,ESE,114,2.0,2.0,67,0.00,,,0.00,Wunderground v.1.15,2013-01-21 16:28:00,
2013-01-21 11:38:00,12.0,3.1,29.68,South,185,2.0,2.0,67,0.00,,,0.00,Wunderground v.1.15,2013-01-21 16:38:00,
2013-01-21 11:48:00,12.1,2.9,29.67,SE,131,2.0,2.0,66,0.00,,,0.00,Wunderground v.1.15,2013-01-21 16:48:00,
2013-01-21 11:58:00,12.2,3.0,29.66,ESE,117,3.0,3.0,66,0.00,,,0.00,Wunderground v.1.15,2013-01-21 16:58:00,
2013-01-21 12:08:00,13.0,2.8,29.65,SSE,157,2.0,2.0,63,0.00,,,0.00,Wunderground v.1.15,2013-01-21 17:08:00,
2013-01-21 12:18:00,14.5,2.8,29.64,East,92,1.0,1.0,59,0.00,,,0.00,Wunderground v.1.15,2013-01-21 17:18:00,
2013-01-21 12:27:00,15.0,2.1,29.63,NE,51,2.0,2.0,56,0.00,,,0.00,Wunderground v.1.15,2013-01-21 17:27:00,
2013-01-21 12:38:00,15.3,0.8,29.63,WNW,284,4.0,4.0,52,0.00,,,0.00,Wunderground v.1.15,2013-01-21 17:38:00,
2013-01-21 12:48:00,15.6,0.2,29.63,West,273,7.0,7.0,50,0.00,,,0.00,Wunderground v.1.15,2013-01-21 17:48:00,
2013-01-21 12:58:00,15.2,-0.1,29.63,West,269,8.0,9.0,50,0.00,,,0.00,Wunderground v.1.15,2013-01-21 17:58:00,
2013-01-21 13:08:00,15.0,-0.3,29.63,West,262,8.0,8.0,50,0.00,,,0.00,Wunderground v.1.15,2013-01-21 18:08:00,
2013-01-21 13:18:00,15.3,0.0,29.62,West,269,7.0,13.0,50,0.00,,,0.00,Wunderground v.1.15,2013-01-21 18:18:00,
2013-01-21 13:28:00,14.9,0.4,29.62,West,281,9.0,11.0,52,0.00,,,0.00,Wunderground v.1.15,2013-01-21 18:28:00,
2013-01-21 13:37:00,14.9,0.8,29.62,West,263,8.0,8.0,53,0.00,,,0.00,Wunderground v.1.15,2013-01-21 18:37:00,
2013-01-21 13:48:00,14.9,0.0,29.62,WSW,250,7.0,7.0,51,0.00,,,0.00,Wunderground v.1.15,2013-01-21 18:48:00,
2013-01-21 13:58:00,15.3,0.8,29.63,WNW,284,6.0,8.0,52,0.00,,,0.00,Wunderground v.1.15,2013-01-21 18:58:00,
2013-01-21 14:08:00,15.2,0.3,29.63,NW,310,6.0,15.0,51,0.00,,,0.00,Wunderground v.1.15,2013-01-21 19:08:00,
2013-01-21 14:18:00,15.0,0.5,29.63,West,263,6.0,8.0,52,0.00,,,0.00,Wunderground v.1.15,2013-01-21 19:18:00,
2013-01-21 14:28:00,15.0,0.5,29.63,WNW,296,6.0,8.0,52,0.00,,,0.00,Wunderground v.1.15,2013-01-21 19:28:00,
2013-01-21 14:38:00,15.1,0.2,29.63,WSW,258,7.0,7.0,51,0.00,,,0.00,Wunderground v.1.15,2013-01-21 19:38:00,
2013-01-21 14:48:00,15.2,0.7,29.63,West,280,5.0,5.0,52,0.00,,,0.00,Wunderground v.1.15,2013-01-21 19:48:00,
2013-01-21 14:58:00,15.2,0.7,29.64,West,279,4.0,5.0,52,0.00,,,0.00,Wunderground v.1.15,2013-01-21 19:58:00,
2013-01-21 15:07:00,15.2,0.7,29.63,WNW,286,3.0,3.0,52,0.00,,,0.00,Wunderground v.1.15,2013-01-21 20:07:00,
2013-01-21 15:18:00,15.3,1.2,29.63,WNW,286,1.0,1.0,53,0.00,,,0.00,Wunderground v.1.15,2013-01-21 20:18:00,
2013-01-21 15:28:00,15.4,0.9,29.63,WNW,286,0.0,0.0,52,0.00,,,0.00,Wunderground v.1.15,2013-01-21 20:28:00,
2013-01-21 15:38:00,15.4,1.3,29.63,West,275,1.0,2.0,53,0.00,,,0.00,Wunderground v.1.15,2013-01-21 20:38:00,
2013-01-21 15:48:00,15.0,1.3,29.63,West,260,3.0,3.0,54,0.00,,,0.00,Wunderground v.1.15,2013-01-21 20:48:00,
2013-01-21 15:58:00,15.0,2.1,29.63,West,273,3.0,3.0,56,0.00,,,0.00,Wunderground v.1.15,2013-01-21 20:58:00,
2013-01-21 16:08:00,14.9,2.4,29.62,West,277,2.0,2.0,57,0.00,,,0.00,Wunderground v.1.15,2013-01-21 21:08:00,
2013-01-21 16:17:00,14.7,2.6,29.63,West,277,1.0,1.0,58,0.00,,,0.00,Wunderground v.1.15,2013-01-21 21:17:00,
2013-01-21 16:28:00,14.4,3.0,29.62,West,277,1.0,1.0,60,0.00,,,0.00,Wunderground v.1.15,2013-01-21 21:28:00,
2013-01-21 16:37:00,14.3,2.9,29.62,West,277,1.0,1.0,60,0.00,,,0.00,Wunderground v.1.15,2013-01-21 21:37:00,
2013-01-21 16:48:00,14.1,3.5,29.62,West,277,1.0,1.0,62,0.00,,,0.00,Wunderground v.1.15,2013-01-21 21:48:00,
2013-01-21 16:58:00,13.9,3.3,29.62,West,277,0.0,1.0,62,0.00,,,0.00,Wunderground v.1.15,2013-01-21 21:58:00,
2013-01-21 17:08:00,13.9,3.3,29.62,West,277,0.0,7.0,62,0.00,,,0.00,Wunderground v.1.15,2013-01-21 22:08:00,
2013-01-21 17:18:00,13.7,3.1,29.62,West,277,1.0,1.0,62,0.00,,,0.00,Wunderground v.1.15,2013-01-21 22:18:00,
2013-01-21 17:27:00,13.7,3.8,29.62,West,277,1.0,2.0,64,0.00,,,0.00,Wunderground v.1.15,2013-01-21 22:27:00,
2013-01-21 17:38:00,13.5,4.2,29.62,West,277,1.0,2.0,66,0.00,,,0.00,Wunderground v.1.15,2013-01-21 22:38:00,
2013-01-21 17:48:00,13.3,5.3,29.63,NNE,22,2.0,6.0,70,0.00,,,0.00,Wunderground v.1.15,2013-01-21 22:48:00,
2013-01-21 17:58:00,12.8,6.7,29.63,NNE,19,3.0,3.0,76,0.00,,,0.00,Wunderground v.1.15,2013-01-21 22:58:00,
2013-01-21 18:08:00,12.5,7.5,29.63,NNE,12,2.0,4.0,80,0.00,,,0.00,Wunderground v.1.15,2013-01-21 23:08:00,
2013-01-21 18:18:00,12.3,7.9,29.63,North,355,1.0,3.0,82,0.00,,,0.00,Wunderground v.1.15,2013-01-21 23:18:00,
2013-01-21 18:28:00,12.1,7.9,29.63,North,355,1.0,3.0,83,0.00,,,0.00,Wunderground v.1.15,2013-01-21 23:28:00,
2013-01-21 18:37:00,12.0,8.1,29.64,North,355,1.0,1.0,84,0.00,,,0.00,Wunderground v.1.15,2013-01-21 23:37:00,
2013-01-21 18:48:00,11.9,8.3,29.64,North,355,1.0,1.0,85,0.00,,,0.00,Wunderground v.1.15,2013-01-21 23:48:00,
2013-01-21 18:58:00,11.8,8.4,29.63,North,355,2.0,2.0,86,0.00,,,0.00,Wunderground v.1.15,2013-01-21 23:58:00,
2013-01-21 19:08:00,11.8,8.4,29.64,North,355,1.0,1.0,86,0.00,,,0.00,Wunderground v.1.15,2013-01-22 00:08:00,
2013-01-21 19:18:00,11.7,8.6,29.64,North,355,1.0,1.0,87,0.00,,,0.00,Wunderground v.1.15,2013-01-22 00:18:00,
2013-01-21 19:28:00,11.7,8.6,29.64,North,355,1.0,1.0,87,0.00,,,0.00,Wunderground v.1.15,2013-01-22 00:28:00,
2013-01-21 19:38:00,11.7,8.6,29.63,North,355,1.0,2.0,87,0.00,,,0.00,Wunderground v.1.15,2013-01-22 00:38:00,
2013-01-21 19:48:00,11.6,8.7,29.63,North,355,2.0,2.0,88,0.00,,,0.00,Wunderground v.1.15,2013-01-22 00:48:00,
2013-01-21 19:58:00,11.5,8.6,29.63,North,355,1.0,1.0,88,0.00,,,0.00,Wunderground v.1.15,2013-01-22 00:58:00,
2013-01-21 20:08:00,11.4,8.5,29.63,NNE,21,2.0,4.0,88,0.00,,,0.00,Wunderground v.1.15,2013-01-22 01:08:00,
2013-01-21 20:17:00,11.4,8.5,29.62,NNE,22,2.0,2.0,88,0.00,,,0.00,Wunderground v.1.15,2013-01-22 01:17:00,
2013-01-21 20:28:00,11.3,8.4,29.62,NNE,32,3.0,3.0,88,0.00,,,0.00,Wunderground v.1.15,2013-01-22 01:28:00,
2013-01-21 20:38:00,11.0,8.1,29.62,NNE,30,3.0,5.0,88,0.00,,,0.00,Wunderground v.1.15,2013-01-22 01:38:00,
2013-01-21 20:48:00,10.8,7.7,29.62,NE,38,4.0,5.0,87,0.00,,,0.00,Wunderground v.1.15,2013-01-22 01:48:00,
2013-01-21 20:58:00,10.7,7.6,29.62,NNE,28,4.0,4.0,87,0.00,,,0.00,Wunderground v.1.15,2013-01-22 01:58:00,
2013-01-21 21:07:00,10.4,7.0,29.61,NE,35,4.0,5.0,86,0.00,,,0.00,Wunderground v.1.15,2013-01-22 02:07:00,
2013-01-21 21:18:00,10.3,6.9,29.60,NNE,22,4.0,4.0,86,0.00,,,0.00,Wunderground v.1.15,2013-01-22 02:18:00,
2013-01-21 21:28:00,10.1,7.0,29.60,NNE,21,3.0,3.0,87,0.00,,,0.00,Wunderground v.1.15,2013-01-22 02:28:00,
2013-01-21 21:38:00,10.0,6.9,29.59,NNE,20,3.0,3.0,87,0.00,,,0.00,Wunderground v.1.15,2013-01-22 02:38:00,
2013-01-21 21:48:00,9.8,6.7,29.59,NNE,20,3.0,3.0,87,0.00,,,0.00,Wunderground v.1.15,2013-01-22 02:48:00,
2013-01-21 21:58:00,9.6,6.5,29.59,NNE,20,3.0,3.0,87,0.00,,,0.00,Wunderground v.1.15,2013-01-22 02:58:00,
2013-01-21 22:08:00,9.5,6.4,29.59,NNE,19,1.0,1.0,87,0.00,,,0.00,Wunderground v.1.15,2013-01-22 03:08:00,
2013-01-21 22:18:00,9.4,6.3,29.58,NNE,19,2.0,2.0,87,0.00,,,0.00,Wunderground v.1.15,2013-01-22 03:18:00,
2013-01-21 22:28:00,9.3,6.2,29.57,NNE,19,2.0,2.0,87,0.00,,,0.00,Wunderground v.1.15,2013-01-22 03:28:00,
2013-01-21 22:38:00,9.3,6.2,29.57,NNE,19,2.0,2.0,87,0.00,,,0.00,Wunderground v.1.15,2013-01-22 03:38:00,
2013-01-21 22:48:00,9.3,6.2,29.56,NNE,19,2.0,2.0,87,0.00,,,0.00,Wunderground v.1.15,2013-01-22 03:48:00,
2013-01-21 22:57:00,9.2,6.1,29.56,NNE,17,2.0,2.0,87,0.00,,,0.00,Wunderground v.1.15,2013-01-22 03:57:00,
2013-01-21 23:08:00,9.2,6.1,29.55,NNE,15,1.0,1.0,87,0.00,,,0.00,Wunderground v.1.15,2013-01-22 04:08:00,
2013-01-21 23:17:00,8.9,5.8,29.54,North,10,1.0,1.0,87,0.00,,,0.00,Wunderground v.1.15,2013-01-22 04:17:00,
2013-01-21 23:27:00,8.6,5.5,29.54,North,9,1.0,2.0,87,0.00,,,0.00,Wunderground v.1.15,2013-01-22 04:27:00,
2013-01-21 23:38:00,8.5,5.4,29.52,North,9,1.0,2.0,87,0.00,,,0.00,Wunderground v.1.15,2013-01-22 04:38:00,
2013-01-21 23:47:00,8.4,5.3,29.51,North,9,2.0,2.0,87,0.00,,,0.00,Wunderground v.1.15,2013-01-22 04:47:00,
2013-01-21 23:58:00,8.3,5.2,29.51,North,5,1.0,1.0,87,0.00,,,0.00,Wunderground v.1.15,2013-01-22 04:58:00,